Elmora, Pennsylvania
Current Conditions -  °F | °C
As of 4:15 AM on Monday 22 Dec 2014 (Local Time) from KIDI Reporting Station
Clear Clear  
Wind Chill: -4°   Ceiling: Unl
Heat Index: -1°   Visibility: 10mi
Dew Point: -5°   Wind: 6mph
Humidity: 75%   Direction: 120°ESE
Pressure: 30.16"   Gusts: 13mph
Location:  40.6°N, 78.75°W
Report Text: KIDI 220915Z AUTO 12005G11KT 10SM CLR M01/M05 A3016 RMK A01
Loading
Personal Weather Stations






























Interactive Weather Map New forecast layout! Learn more

10-Day Weather Forecast

Advertisements
Track Severe Weather on mobile